createdAt,value
2022-11-14T00:00:37.641Z,142.93
2022-11-14T00:03:12.826Z,140.90
2022-11-14T00:05:50.101Z,148.73
2022-11-14T00:08:22.221Z,152.15
2022-11-14T00:11:04.589Z,142.77
2022-11-14T00:13:37.798Z,141.13
2022-11-14T00:16:11.676Z,145.52
2022-11-14T00:18:39.768Z,133.50
2022-11-14T00:21:10.940Z,141.07
2022-11-14T00:23:39.097Z,139.48
2022-11-14T00:26:08.269Z,133.65
2022-11-14T00:28:35.371Z,127.07
2022-11-14T00:31:12.239Z,146.15
2022-11-14T00:33:41.850Z,132.18
2022-11-14T00:36:09.209Z,136.68
2022-11-14T00:38:54.121Z,128.52
2022-11-14T00:41:23.495Z,135.48
2022-11-14T00:43:50.602Z,130.60
2022-11-14T00:46:24.627Z,141.93
2022-11-14T00:48:51.680Z,129.27
2022-11-14T00:51:18.733Z,141.40
2022-11-14T00:53:49.872Z,129.63
2022-11-14T00:56:21.025Z,130.80
2022-11-14T00:58:52.125Z,114.65
2022-11-14T01:01:23.356Z,134.70
2022-11-14T01:03:57.520Z,143.02
2022-11-14T01:06:24.749Z,129.95
2022-11-14T01:08:52.893Z,128.13
2022-11-14T01:11:22.521Z,132.15
2022-11-14T01:13:56.475Z,137.98
2022-11-14T01:16:24.537Z,133.25
2022-11-14T01:18:58.628Z,125.45
2022-11-14T01:21:26.740Z,150.93
2022-11-14T01:23:53.763Z,159.45
2022-11-14T01:26:28.029Z,158.23
2022-11-14T01:28:58.154Z,147.75
2022-11-14T01:31:39.612Z,144.05
2022-11-14T01:34:10.051Z,155.77
2022-11-14T01:36:37.058Z,126.13
2022-11-14T01:39:04.298Z,142.40
2022-11-14T01:41:36.361Z,136.18
2022-11-14T01:44:03.483Z,141.93
2022-11-14T01:46:39.131Z,136.95
2022-11-14T01:49:15.348Z,139.35
2022-11-14T01:52:04.019Z,121.07
2022-11-14T01:54:34.878Z,147.98
2022-11-14T01:57:04.148Z,140.80
2022-11-14T01:59:40.353Z,144.90
2022-11-14T02:02:17.772Z,103.97
2022-11-14T02:04:52.284Z,126.47
2022-11-14T02:07:20.096Z,151.75
2022-11-14T02:09:49.159Z,132.73
2022-11-14T02:12:24.537Z,94.97
2022-11-14T02:14:59.787Z,107.53
2022-11-14T02:17:32.905Z,114.22
2022-11-14T02:20:32.870Z,125.97
2022-11-14T02:22:59.903Z,115.20
2022-11-14T02:25:27.502Z,113.43
2022-11-14T02:27:57.897Z,139.90
2022-11-14T02:30:27.907Z,142.95
2022-11-14T02:33:11.926Z,145.02
2022-11-14T02:35:51.369Z,179.25
2022-11-14T02:38:33.682Z,178.73
2022-11-14T02:41:07.860Z,151.20
2022-11-14T02:43:46.181Z,167.50
2022-11-14T02:46:20.396Z,163.27
2022-11-14T02:48:47.376Z,133.35
2022-11-14T02:51:27.630Z,171.07
2022-11-14T02:54:09.763Z,163.80
2022-11-14T02:56:38.801Z,159.40
2022-11-14T02:59:06.869Z,167.10
2022-11-14T03:01:41.106Z,155.38
2022-11-14T03:04:09.090Z,169.25
2022-11-14T03:06:36.221Z,141.75
2022-11-14T03:09:11.224Z,140.85
2022-11-14T03:11:39.313Z,119.50
2022-11-14T03:14:06.360Z,188.45
2022-11-14T03:16:33.332Z,136.27
2022-11-14T03:19:07.388Z,157.48
2022-11-14T03:21:34.468Z,172.90
2022-11-14T03:24:02.559Z,175.93
2022-11-14T03:26:31.648Z,158.30
2022-11-14T03:28:58.669Z,187.10
2022-11-14T03:31:28.684Z,171.27
2022-11-14T03:34:11.121Z,157.52
2022-11-14T03:36:38.665Z,159.45
2022-11-14T03:39:06.215Z,172.75
2022-11-14T03:41:35.311Z,155.70
2022-11-14T03:44:05.435Z,192.88
2022-11-14T03:46:38.629Z,133.90
2022-11-14T03:49:05.714Z,145.40
2022-11-14T03:51:52.055Z,140.65
2022-11-14T03:54:22.090Z,189.82
2022-11-14T03:56:49.149Z,182.55
2022-11-14T03:59:32.484Z,178.13
2022-11-14T04:02:01.577Z,158.25
2022-11-14T04:04:28.686Z,145.50
2022-11-14T04:06:55.801Z,148.90
2022-11-14T04:09:27.844Z,166.27
2022-11-14T04:11:55.944Z,107.22
2022-11-14T04:14:22.945Z,121.80
2022-11-14T04:16:53.040Z,151.93
2022-11-14T04:19:21.100Z,132.05
2022-11-14T04:21:49.133Z,131.15
2022-11-14T04:24:17.182Z,151.48
2022-11-14T04:26:47.278Z,135.00
2022-11-14T04:29:25.705Z,131.13
2022-11-14T04:31:53.767Z,127.90
2022-11-14T04:34:20.860Z,136.65
2022-11-14T04:36:47.927Z,137.50
2022-11-14T04:39:14.851Z,163.93
2022-11-14T04:41:44.119Z,131.07
2022-11-14T04:44:12.188Z,128.60
2022-11-14T04:46:40.359Z,127.85
2022-11-14T04:49:07.431Z,128.45
2022-11-14T04:51:37.487Z,128.65
2022-11-14T04:54:11.535Z,132.38
2022-11-14T04:56:43.623Z,119.78
2022-11-14T04:59:12.507Z,118.00
2022-11-14T05:01:51.063Z,158.50
2022-11-14T05:04:20.046Z,97.60
2022-11-14T05:06:48.083Z,118.22
2022-11-14T05:09:21.000Z,148.93
2022-11-14T05:11:48.129Z,133.05
2022-11-14T05:14:15.270Z,163.05
2022-11-14T05:16:45.360Z,200.50
2022-11-14T05:19:13.440Z,148.77
2022-11-14T05:21:44.585Z,150.18
2022-11-14T05:24:13.634Z,188.23
2022-11-14T05:26:48.772Z,134.85
2022-11-14T05:29:20.047Z,165.07
2022-11-14T05:31:48.113Z,185.05
2022-11-14T05:34:15.094Z,179.45
2022-11-14T05:36:43.158Z,138.02
2022-11-14T05:39:11.262Z,122.40
2022-11-14T05:42:11.780Z,185.00
2022-11-14T05:44:39.846Z,169.40
2022-11-14T05:47:08.916Z,172.77
2022-11-14T05:49:36.052Z,182.05
2022-11-14T05:52:05.307Z,145.68
2022-11-14T05:54:49.642Z,192.73
2022-11-14T05:57:17.842Z,212.38
2022-11-14T05:59:44.828Z,190.52
2022-11-14T06:02:12.893Z,226.23
2022-11-14T06:04:43.031Z,219.20
2022-11-14T06:07:14.137Z,191.52
2022-11-14T06:09:46.630Z,183.30
2022-11-14T06:12:17.741Z,178.80
2022-11-14T06:15:01.446Z,154.35
2022-11-14T06:17:28.441Z,174.50
2022-11-14T06:19:55.557Z,166.88
2022-11-14T06:22:23.612Z,158.30
2022-11-14T06:24:52.695Z,156.25
2022-11-14T06:27:37.032Z,154.88
2022-11-14T06:30:12.857Z,154.65
2022-11-14T06:32:39.939Z,171.75
2022-11-14T06:35:11.113Z,134.60
2022-11-14T06:37:44.429Z,143.20
2022-11-14T06:40:17.592Z,157.75
2022-11-14T06:42:56.047Z,150.60
2022-11-14T06:45:23.104Z,155.07
2022-11-14T06:47:50.713Z,151.30
2022-11-14T06:50:19.817Z,137.73
2022-11-14T06:52:48.922Z,138.15
2022-11-14T06:55:18.635Z,136.88
2022-11-14T07:00:24.580Z,120.05
2022-11-14T07:03:17.405Z,130.93
2022-11-14T07:05:44.647Z,133.85
2022-11-14T07:08:21.171Z,116.38
2022-11-14T07:10:49.475Z,135.73
2022-11-14T07:13:22.642Z,127.93
2022-11-14T07:15:54.044Z,125.82
2022-11-14T07:18:26.347Z,133.48
2022-11-14T07:21:15.337Z,116.63
2022-11-14T07:23:43.018Z,126.30
2022-11-14T07:26:11.764Z,131.27
2022-11-14T07:28:51.794Z,132.68
2022-11-14T07:31:25.048Z,126.60
2022-11-14T07:33:53.185Z,125.07
2022-11-14T07:36:29.064Z,137.75
2022-11-14T07:39:07.344Z,134.55
2022-11-14T07:41:41.386Z,140.43
2022-11-14T07:44:08.564Z,131.77
2022-11-14T07:46:37.832Z,131.48
2022-11-14T07:49:04.916Z,131.75
2022-11-14T07:51:34.089Z,121.95
2022-11-14T07:54:03.165Z,121.28
2022-11-14T07:56:30.260Z,127.88
2022-11-14T07:58:58.476Z,127.80
2022-11-14T08:01:25.584Z,133.32
2022-11-14T08:03:52.675Z,125.90
2022-11-14T08:06:26.330Z,128.07
2022-11-14T08:08:53.337Z,122.53
2022-11-14T08:11:41.361Z,124.05
2022-11-14T08:14:16.416Z,132.40
2022-11-14T08:16:44.421Z,126.10
2022-11-14T08:19:13.552Z,128.05
2022-11-14T08:21:43.108Z,136.15
2022-11-14T08:24:10.229Z,129.88
2022-11-14T08:26:47.407Z,137.80
2022-11-14T08:29:27.689Z,132.60
2022-11-14T08:31:59.953Z,129.73
2022-11-14T08:34:29.516Z,135.30
2022-11-14T08:36:58.688Z,126.38
2022-11-14T08:39:26.716Z,127.85
2022-11-14T08:41:53.782Z,127.82
2022-11-14T08:44:22.975Z,125.47
2022-11-14T08:46:51.953Z,117.10
2022-11-14T08:49:20.082Z,127.15
2022-11-14T08:51:52.845Z,117.65
2022-11-14T08:54:28.129Z,123.30
2022-11-14T08:56:56.227Z,120.78
2022-11-14T08:59:28.348Z,108.35
2022-11-14T09:02:01.590Z,125.60
2022-11-14T09:04:38.244Z,121.07
2022-11-14T09:07:12.514Z,123.97
2022-11-14T09:09:41.726Z,124.45
2022-11-14T09:12:09.765Z,115.65
2022-11-14T09:14:36.873Z,127.15
2022-11-14T09:17:06.046Z,124.72
2022-11-14T09:19:36.553Z,114.60
2022-11-14T09:22:07.613Z,101.03
2022-11-14T09:24:48.021Z,113.15
2022-11-14T09:27:21.060Z,125.55
2022-11-14T09:29:48.000Z,122.07
2022-11-14T09:32:27.305Z,115.38
2022-11-14T09:35:01.220Z,100.93
2022-11-14T09:37:30.387Z,106.80
2022-11-14T09:39:57.569Z,94.53
2022-11-14T09:43:01.906Z,93.95
2022-11-14T09:45:33.849Z,79.63
2022-11-14T09:48:26.171Z,82.45
2022-11-14T09:51:06.259Z,79.35
2022-11-14T09:53:54.228Z,78.70
2022-11-14T09:56:27.093Z,67.20
2022-11-14T09:58:56.794Z,65.15
2022-11-14T10:01:42.368Z,59.45
2022-11-14T10:04:17.413Z,55.25
2022-11-14T10:07:02.337Z,49.10
2022-11-14T10:09:44.474Z,43.72
2022-11-14T10:12:32.309Z,45.72
2022-11-14T10:15:32.600Z,39.50
2022-11-14T10:18:29.518Z,40.30
2022-11-14T10:21:30.701Z,39.08
2022-11-14T10:24:15.933Z,34.60
2022-11-14T10:27:01.359Z,34.60
2022-11-14T10:29:39.213Z,35.78
2022-11-14T10:32:24.831Z,30.27
2022-11-14T10:35:20.841Z,31.00
2022-11-14T10:38:00.481Z,64.03
2022-11-14T10:40:45.706Z,55.22
2022-11-14T10:43:27.776Z,31.55
2022-11-14T10:46:11.160Z,35.97
2022-11-14T10:51:22.955Z,25.55
2022-11-14T10:54:01.875Z,23.95
2022-11-14T10:56:31.325Z,27.05
2022-11-14T10:59:09.144Z,24.33
2022-11-14T11:01:59.063Z,26.98
2022-11-14T11:04:29.326Z,21.83
2022-11-14T11:07:36.254Z,22.45
2022-11-14T11:10:41.253Z,23.50
2022-11-14T11:13:28.017Z,23.77
2022-11-14T11:15:59.397Z,20.98
2022-11-14T11:18:32.067Z,22.85
2022-11-14T11:21:15.881Z,20.38
2022-11-14T11:23:54.911Z,20.10
2022-11-14T11:26:25.669Z,20.27
2022-11-14T11:29:12.214Z,21.88
2022-11-14T11:31:58.204Z,24.33
2022-11-14T11:34:31.650Z,22.20
2022-11-14T11:37:23.377Z,24.83
2022-11-14T11:39:55.407Z,21.73
2022-11-14T11:45:39.043Z,21.48
2022-11-14T11:48:15.375Z,18.90
2022-11-14T11:50:43.434Z,20.42
2022-11-14T11:53:30.359Z,20.02
2022-11-14T11:56:07.462Z,19.13
2022-11-14T11:58:45.957Z,20.02
2022-11-14T12:01:13.932Z,17.15
2022-11-14T12:03:46.903Z,19.67
2022-11-14T12:06:27.628Z,17.25
2022-11-14T12:09:18.510Z,18.75
2022-11-14T12:14:48.345Z,15.20
2022-11-14T12:17:23.529Z,16.08
2022-11-14T12:23:20.851Z,16.35
2022-11-14T12:26:09.181Z,17.80
2022-11-14T12:29:01.785Z,15.20
2022-11-14T12:31:34.653Z,15.15
2022-11-14T12:34:20.916Z,28.17
2022-11-14T12:36:50.371Z,19.13
2022-11-14T12:39:35.052Z,19.70
2022-11-14T12:42:08.077Z,20.85
2022-11-14T12:44:40.075Z,14.15
2022-11-14T12:47:08.176Z,16.52
2022-11-14T12:49:53.532Z,17.50
2022-11-14T12:52:45.253Z,182.48
2022-11-14T12:55:27.788Z,16.40
2022-11-14T12:58:10.549Z,23.08
2022-11-14T13:00:50.809Z,23.98
2022-11-14T13:03:48.729Z,29.77
2022-11-14T13:06:42.926Z,16.35
2022-11-14T13:09:53.486Z,23.30
2022-11-14T13:12:52.072Z,18.83
2022-11-14T13:16:06.252Z,13.63
2022-11-14T13:22:15.851Z,18.63
2022-11-14T13:25:02.035Z,16.45
2022-11-14T13:28:05.371Z,16.48
2022-11-14T13:31:02.761Z,17.33
2022-11-14T13:33:51.477Z,15.82
2022-11-14T13:36:45.326Z,16.13
2022-11-14T13:39:31.179Z,19.77
2022-11-14T13:42:18.049Z,14.98
2022-11-14T13:44:48.286Z,19.58
2022-11-14T13:47:56.006Z,16.88
2022-11-14T13:50:37.076Z,19.23
2022-11-14T13:53:15.582Z,18.10
2022-11-14T13:56:07.353Z,18.85
2022-11-14T13:59:06.843Z,23.30
2022-11-14T14:01:41.082Z,21.20
2022-11-14T14:04:45.440Z,20.05
2022-11-14T14:07:36.462Z,20.05
2022-11-14T14:10:34.370Z,22.63
2022-11-14T14:13:43.743Z,19.92
2022-11-14T14:16:15.684Z,22.77
2022-11-14T14:19:15.219Z,23.52
2022-11-14T14:22:22.255Z,27.60
2022-11-14T14:25:35.418Z,25.58
2022-11-14T14:28:23.367Z,51.30
2022-11-14T14:31:09.038Z,51.97
2022-11-14T14:33:48.016Z,35.45
2022-11-14T14:36:25.976Z,46.78
2022-11-14T14:39:22.577Z,46.55
2022-11-14T14:42:02.332Z,47.92
2022-11-14T14:44:49.010Z,45.08
2022-11-14T14:47:43.948Z,43.58
2022-11-14T14:51:06.172Z,47.53
2022-11-14T14:53:35.779Z,51.63
2022-11-14T14:56:19.242Z,47.65
2022-11-14T14:58:51.384Z,55.35
2022-11-14T15:01:36.119Z,76.00
2022-11-14T15:04:07.503Z,65.63
2022-11-14T15:06:40.003Z,67.90
2022-11-14T15:09:20.196Z,66.15
2022-11-14T15:12:03.079Z,62.70
2022-11-14T15:14:36.096Z,66.05
2022-11-14T15:17:05.589Z,66.22
2022-11-14T15:19:41.336Z,64.85
2022-11-14T15:22:20.236Z,63.85
2022-11-14T15:25:06.772Z,68.05
2022-11-14T15:28:01.021Z,64.03
2022-11-14T15:33:05.024Z,64.65
2022-11-14T15:35:37.783Z,67.45
2022-11-14T15:38:42.718Z,72.57
2022-11-14T15:41:34.736Z,69.82
2022-11-14T15:44:05.635Z,71.25
2022-11-14T15:46:41.208Z,76.07
2022-11-14T15:49:15.509Z,74.45
2022-11-14T15:52:03.707Z,75.07
2022-11-14T15:54:33.360Z,68.20
2022-11-14T15:57:06.539Z,79.68
2022-11-14T15:59:35.061Z,77.70
2022-11-14T16:02:32.344Z,82.35
2022-11-14T16:05:01.219Z,77.40
2022-11-14T16:07:30.360Z,75.82
2022-11-14T16:09:58.468Z,71.30
2022-11-14T16:12:33.329Z,76.88
2022-11-14T16:15:00.325Z,86.28
2022-11-14T16:17:27.375Z,122.78
2022-11-14T16:20:07.107Z,119.93
2022-11-14T16:22:41.327Z,107.18
2022-11-14T16:25:22.865Z,93.80
2022-11-14T16:27:54.450Z,85.63
2022-11-14T16:30:26.241Z,75.32
2022-11-14T16:32:53.352Z,71.88
2022-11-14T16:35:26.305Z,64.20
2022-11-14T16:37:55.941Z,66.88
2022-11-14T16:40:27.276Z,66.55
2022-11-14T16:42:55.918Z,66.93
2022-11-14T16:45:24.551Z,71.32
2022-11-14T16:47:51.819Z,68.35
2022-11-14T16:50:21.969Z,72.43
2022-11-14T16:52:49.505Z,69.22
2022-11-14T16:55:23.607Z,71.40
2022-11-14T16:57:51.836Z,68.03
2022-11-14T17:00:19.020Z,62.17
2022-11-14T17:03:00.232Z,71.20
2022-11-14T17:05:29.390Z,71.85
2022-11-14T17:08:01.289Z,74.32
2022-11-14T17:10:30.367Z,73.05
2022-11-14T17:12:57.410Z,81.50
2022-11-14T17:15:24.398Z,81.38
2022-11-14T17:17:51.508Z,84.82
2022-11-14T17:20:25.264Z,82.07
2022-11-14T17:22:53.517Z,84.80
2022-11-14T17:25:23.664Z,80.65
2022-11-14T17:27:51.620Z,81.70
2022-11-14T17:30:29.222Z,83.05
2022-11-14T17:32:59.413Z,92.32
2022-11-14T17:35:32.418Z,89.60
2022-11-14T17:38:00.450Z,81.60
2022-11-14T17:40:28.196Z,85.53
2022-11-14T17:42:55.676Z,81.38
2022-11-14T17:45:25.557Z,92.63
2022-11-14T17:47:53.802Z,94.03
2022-11-14T17:50:22.122Z,93.32
2022-11-14T17:52:56.037Z,89.30
2022-11-14T17:55:39.886Z,89.80
2022-11-14T18:01:32.067Z,93.75
2022-11-14T18:04:06.188Z,93.63
2022-11-14T18:06:34.897Z,87.45
2022-11-14T18:09:15.367Z,95.60
2022-11-14T18:11:44.832Z,95.07
2022-11-14T18:14:18.183Z,97.88
2022-11-14T18:17:12.394Z,95.45
2022-11-14T18:19:40.622Z,113.70
2022-11-14T18:22:10.003Z,110.85
2022-11-14T18:24:37.309Z,145.55
2022-11-14T18:27:06.511Z,126.90
2022-11-14T18:29:39.925Z,126.15
2022-11-14T18:32:08.293Z,111.25
2022-11-14T18:34:39.327Z,126.40
2022-11-14T18:37:07.307Z,108.75
2022-11-14T18:39:35.847Z,98.25
2022-11-14T18:42:03.123Z,108.32
2022-11-14T18:44:30.825Z,111.63
2022-11-14T18:46:58.279Z,113.10
2022-11-14T18:49:26.857Z,111.30
2022-11-14T18:51:56.397Z,112.75
2022-11-14T18:54:24.537Z,102.07
2022-11-14T18:56:52.896Z,93.80
2022-11-14T18:59:20.331Z,121.40
2022-11-14T19:01:47.520Z,108.18
2022-11-14T19:04:17.858Z,106.32
2022-11-14T19:06:46.923Z,107.10
2022-11-14T19:09:21.663Z,120.93
2022-11-14T19:12:08.433Z,114.50
2022-11-14T19:14:38.115Z,114.15
2022-11-14T19:17:07.712Z,117.90
2022-11-14T19:19:35.192Z,126.60
2022-11-14T19:22:02.797Z,124.65
2022-11-14T19:24:32.864Z,122.22
2022-11-14T19:27:01.849Z,116.95
2022-11-14T19:29:30.259Z,120.50
2022-11-14T19:31:57.798Z,103.75
2022-11-14T19:34:26.656Z,111.90
2022-11-14T19:37:00.416Z,108.75
2022-11-14T19:39:29.998Z,108.45
2022-11-14T19:42:03.189Z,96.25
2022-11-14T19:44:40.789Z,106.53
2022-11-14T19:47:08.679Z,102.95
2022-11-14T19:49:35.835Z,101.53
2022-11-14T19:52:03.181Z,97.03
2022-11-14T19:54:31.394Z,104.88
2022-11-14T19:56:59.900Z,94.70
2022-11-14T19:59:30.915Z,104.63
2022-11-14T20:01:58.262Z,104.25
2022-11-14T20:04:28.338Z,101.38
2022-11-14T20:06:57.795Z,90.05
2022-11-14T20:09:27.240Z,95.18
2022-11-14T20:11:54.959Z,91.47
2022-11-14T20:14:25.263Z,98.75
2022-11-14T20:16:53.668Z,89.40
2022-11-14T20:19:22.102Z,92.18
2022-11-14T20:21:51.500Z,94.57
2022-11-14T20:24:22.315Z,91.60
2022-11-14T20:26:54.186Z,96.10
2022-11-14T20:29:22.832Z,89.43
2022-11-14T20:31:50.454Z,87.85
2022-11-14T20:34:17.797Z,101.25
2022-11-14T20:37:09.760Z,99.90
2022-11-14T20:39:34.600Z,93.28
2022-11-14T20:42:08.917Z,91.65
2022-11-14T20:44:37.247Z,92.38
2022-11-14T20:47:11.175Z,88.53
2022-11-14T20:49:39.324Z,89.72
2022-11-14T20:52:08.475Z,96.72
2022-11-14T20:54:36.155Z,92.00
2022-11-14T20:57:05.700Z,90.50
2022-11-14T20:59:33.577Z,106.93
2022-11-14T21:02:04.840Z,110.53
2022-11-14T21:04:32.067Z,100.38
2022-11-14T21:07:00.550Z,94.07
2022-11-14T21:09:32.007Z,98.03
2022-11-14T21:11:59.561Z,96.47
2022-11-14T21:14:26.649Z,105.78
2022-11-14T21:16:53.905Z,90.47
2022-11-14T21:19:23.033Z,90.38
2022-11-14T21:21:52.157Z,96.70
2022-11-14T21:24:19.477Z,101.30
2022-11-14T21:26:48.779Z,103.85
2022-11-14T21:29:45.261Z,104.72
2022-11-14T21:32:14.353Z,94.15
2022-11-14T21:34:56.162Z,101.60
2022-11-14T21:37:23.399Z,105.18
2022-11-14T21:39:51.633Z,110.03
2022-11-14T21:42:24.651Z,155.23
2022-11-14T21:44:58.316Z,121.38
2022-11-14T21:47:35.345Z,130.35
2022-11-14T21:50:02.526Z,105.03
2022-11-14T21:52:38.306Z,107.32
2022-11-14T21:55:06.901Z,99.20
2022-11-14T21:57:33.957Z,97.57
2022-11-14T22:00:07.481Z,107.53
2022-11-14T22:05:25.930Z,117.40
2022-11-14T22:08:09.417Z,98.78
2022-11-14T22:10:43.555Z,103.88
2022-11-14T22:13:11.641Z,107.07
2022-11-14T22:15:38.705Z,106.60
2022-11-14T22:18:05.748Z,102.78
2022-11-14T22:20:33.878Z,100.97
2022-11-14T22:23:02.018Z,113.60
2022-11-14T22:25:29.057Z,103.47
2022-11-14T22:28:03.321Z,103.70
2022-11-14T22:30:30.513Z,101.47
2022-11-14T22:33:00.684Z,102.70
2022-11-14T22:35:27.722Z,107.97
2022-11-14T22:37:57.893Z,102.03
2022-11-14T22:40:31.240Z,106.97
2022-11-14T22:43:05.470Z,106.05
2022-11-14T22:45:38.624Z,95.15
2022-11-14T22:48:05.908Z,101.97
2022-11-14T22:50:34.026Z,100.68
2022-11-14T22:53:02.109Z,101.40
2022-11-14T22:55:30.185Z,96.75
2022-11-14T22:57:59.072Z,95.80
2022-11-14T23:00:26.193Z,104.57
2022-11-14T23:02:57.213Z,98.80
2022-11-14T23:05:24.278Z,99.97
2022-11-14T23:07:51.300Z,106.82
2022-11-14T23:10:22.383Z,98.85
2022-11-14T23:12:52.388Z,104.90
2022-11-14T23:15:19.396Z,100.50
2022-11-14T23:17:47.114Z,106.57
2022-11-14T23:20:19.389Z,97.80
2022-11-14T23:22:46.892Z,108.32
2022-11-14T23:25:17.124Z,98.40
2022-11-14T23:27:51.342Z,102.55
2022-11-14T23:30:19.391Z,108.90
2022-11-14T23:32:47.492Z,99.57
2022-11-14T23:35:14.535Z,101.90
2022-11-14T23:37:41.501Z,99.93
2022-11-14T23:48:06.902Z,103.80
2022-11-14T23:50:36.048Z,101.63
2022-11-14T23:53:07.404Z,102.68
2022-11-14T23:55:36.596Z,98.50
2022-11-14T23:58:04.759Z,94.93
